createdAt,value
2022-08-02T00:01:37.686Z,65.36
2022-08-02T00:04:04.857Z,65.70
2022-08-02T00:06:32.666Z,65.29
2022-08-02T00:08:59.621Z,65.19
2022-08-02T00:11:27.027Z,65.26
2022-08-02T00:13:54.043Z,65.37
2022-08-02T00:16:21.667Z,65.20
2022-08-02T00:19:04.852Z,65.20
2022-08-02T00:21:31.723Z,65.38
2022-08-02T00:24:08.056Z,65.41
2022-08-02T00:26:45.290Z,65.48
2022-08-02T00:29:12.107Z,65.67
2022-08-02T00:31:38.984Z,65.78
2022-08-02T00:34:29.236Z,65.74
2022-08-02T00:36:53.323Z,65.95
2022-08-02T00:39:34.776Z,66.13
2022-08-02T00:42:03.613Z,66.28
2022-08-02T00:44:30.434Z,66.39
2022-08-02T00:46:57.276Z,66.46
2022-08-02T00:49:24.524Z,66.41
2022-08-02T00:51:51.601Z,66.42
2022-08-02T00:54:20.263Z,66.55
2022-08-02T00:56:49.671Z,66.74
2022-08-02T00:59:18.748Z,66.87
2022-08-02T01:01:56.218Z,66.71
2022-08-02T01:04:26.707Z,66.93
2022-08-02T01:07:12.290Z,66.99
2022-08-02T01:09:44.078Z,67.21
2022-08-02T01:12:12.416Z,67.34
2022-08-02T01:14:42.498Z,67.54
2022-08-02T01:17:19.087Z,67.51
2022-08-02T01:20:05.200Z,67.31
2022-08-02T01:23:06.339Z,67.05
2022-08-02T01:26:01.389Z,66.61
2022-08-02T01:28:51.235Z,66.85
2022-08-02T01:31:45.097Z,67.08
2022-08-02T01:34:17.187Z,66.73
2022-08-02T01:36:50.056Z,66.62
2022-08-02T01:39:27.309Z,66.84
2022-08-02T01:42:01.408Z,66.99
2022-08-02T01:44:32.427Z,67.05
2022-08-02T01:47:04.802Z,66.99
2022-08-02T01:49:34.698Z,67.30
2022-08-02T01:52:22.417Z,67.30
2022-08-02T01:55:18.619Z,67.41
2022-08-02T01:57:49.927Z,67.60
2022-08-02T02:00:18.477Z,67.60
2022-08-02T02:02:48.369Z,67.57
2022-08-02T02:05:19.727Z,67.46
2022-08-02T02:07:51.580Z,67.50
2022-08-02T02:10:26.928Z,67.70
2022-08-02T02:12:55.406Z,67.77
2022-08-02T02:15:24.597Z,67.63
2022-08-02T02:18:13.137Z,67.63
2022-08-02T02:20:40.499Z,67.73
2022-08-02T02:23:08.080Z,67.83
2022-08-02T02:25:41.511Z,67.98
2022-08-02T02:28:19.711Z,68.16
2022-08-02T02:30:50.253Z,67.89
2022-08-02T02:33:26.440Z,67.86
2022-08-02T02:35:58.736Z,67.65
2022-08-02T02:38:29.127Z,67.55
2022-08-02T02:40:59.124Z,67.63
2022-08-02T02:43:29.268Z,67.58
2022-08-02T02:45:57.472Z,67.92
2022-08-02T02:48:27.182Z,68.06
2022-08-02T02:50:55.120Z,68.35
2022-08-02T02:53:24.239Z,68.41
2022-08-02T02:56:01.699Z,68.66
2022-08-02T02:58:31.585Z,68.76
2022-08-02T03:01:17.790Z,68.76
2022-08-02T03:03:45.906Z,68.79
2022-08-02T03:06:15.796Z,69.00
2022-08-02T03:08:43.824Z,69.03
2022-08-02T03:11:11.362Z,69.26
2022-08-02T03:13:39.431Z,69.30
2022-08-02T03:16:08.237Z,69.53
2022-08-02T03:18:38.061Z,69.82
2022-08-02T03:21:07.634Z,69.89
2022-08-02T03:23:35.226Z,70.00
2022-08-02T03:26:02.385Z,70.14
2022-08-02T03:28:29.698Z,70.17
2022-08-02T03:30:57.309Z,70.42
2022-08-02T03:33:26.011Z,70.54
2022-08-02T03:35:55.832Z,70.66
2022-08-02T03:38:24.547Z,70.84
2022-08-02T03:40:57.951Z,70.91
2022-08-02T03:43:28.623Z,70.92
2022-08-02T03:45:58.242Z,70.93
2022-08-02T03:48:34.339Z,71.16
2022-08-02T03:51:02.487Z,70.92
2022-08-02T03:53:29.742Z,70.95
2022-08-02T03:55:58.108Z,71.04
2022-08-02T03:58:26.309Z,70.99
2022-08-02T04:00:56.242Z,70.88
2022-08-02T04:03:23.435Z,70.93
2022-08-02T04:06:03.774Z,70.84
2022-08-02T04:08:37.598Z,70.83
2022-08-02T04:11:24.579Z,70.86
2022-08-02T04:13:52.482Z,70.68
2022-08-02T04:16:38.365Z,70.56
2022-08-02T04:19:09.830Z,70.32
2022-08-02T04:22:20.004Z,70.42
2022-08-02T04:24:52.242Z,70.04
2022-08-02T04:27:51.077Z,70.02
2022-08-02T04:30:10.544Z,69.99
2022-08-02T04:32:38.479Z,70.01
2022-08-02T04:35:22.476Z,69.93
2022-08-02T04:38:09.784Z,69.97
2022-08-02T04:40:36.808Z,69.70
2022-08-02T04:43:03.809Z,69.71
2022-08-02T04:45:31.659Z,69.46
2022-08-02T04:48:06.357Z,69.42
2022-08-02T04:50:34.555Z,69.48
2022-08-02T04:53:02.105Z,69.29
2022-08-02T04:55:30.213Z,69.29
2022-08-02T04:57:58.776Z,69.16
2022-08-02T05:00:28.368Z,69.15
2022-08-02T05:02:59.573Z,69.14
2022-08-02T05:05:26.865Z,69.10
2022-08-02T05:07:53.626Z,68.96
2022-08-02T05:10:21.551Z,68.67
2022-08-02T05:12:49.339Z,68.51
2022-08-02T05:15:18.717Z,68.44
2022-08-02T05:17:48.753Z,68.32
2022-08-02T05:20:17.208Z,68.03
2022-08-02T05:22:45.090Z,67.64
2022-08-02T05:25:12.424Z,67.18
2022-08-02T05:27:39.327Z,67.03
2022-08-02T05:30:07.535Z,66.68
2022-08-02T05:32:34.883Z,66.37
2022-08-02T05:35:02.655Z,66.31
2022-08-02T05:37:31.831Z,66.15
2022-08-02T05:40:00.837Z,65.65
2022-08-02T05:42:32.542Z,65.06
2022-08-02T05:45:00.509Z,64.65
2022-08-02T05:47:27.492Z,64.32
2022-08-02T05:49:54.422Z,64.18
2022-08-02T05:52:27.269Z,63.77
2022-08-02T05:55:14.605Z,63.64
2022-08-02T05:58:11.844Z,63.53
2022-08-02T06:00:42.055Z,62.87
2022-08-02T06:03:31.424Z,62.38
2022-08-02T06:06:15.330Z,62.03
2022-08-02T06:08:47.560Z,61.87
2022-08-02T06:11:22.487Z,61.18
2022-08-02T06:13:50.139Z,60.67
2022-08-02T06:16:18.007Z,60.23
2022-08-02T06:19:00.523Z,59.89
2022-08-02T06:22:33.375Z,59.74
2022-08-02T06:24:19.779Z,59.44
2022-08-02T06:26:52.854Z,59.36
2022-08-02T06:29:23.097Z,58.98
2022-08-02T06:31:53.478Z,58.66
2022-08-02T06:34:20.337Z,58.85
2022-08-02T06:36:55.782Z,58.67
2022-08-02T06:39:39.717Z,58.06
2022-08-02T06:42:13.550Z,57.62
2022-08-02T06:44:50.730Z,57.70
2022-08-02T06:47:19.836Z,57.30
2022-08-02T06:49:53.043Z,57.01
2022-08-02T06:52:29.729Z,56.97
2022-08-02T06:55:02.011Z,56.65
2022-08-02T06:57:30.406Z,56.15
2022-08-02T06:59:58.657Z,56.03
2022-08-02T07:02:25.801Z,56.29
2022-08-02T07:04:52.762Z,55.74
2022-08-02T07:07:20.035Z,55.51
2022-08-02T07:09:56.255Z,55.06
2022-08-02T07:12:33.021Z,54.66
2022-08-02T07:15:01.410Z,54.48
2022-08-02T07:17:29.160Z,53.79
2022-08-02T07:19:56.743Z,53.80
2022-08-02T07:22:24.763Z,53.60
2022-08-02T07:24:51.874Z,53.54
2022-08-02T07:27:20.176Z,53.55
2022-08-02T07:29:47.620Z,53.16
2022-08-02T07:32:23.484Z,52.77
2022-08-02T07:34:53.119Z,52.43
2022-08-02T07:37:54.295Z,52.41
2022-08-02T07:40:20.385Z,52.43
2022-08-02T07:42:56.538Z,52.07
2022-08-02T07:45:26.111Z,51.80
2022-08-02T07:47:53.134Z,52.04
2022-08-02T07:50:22.979Z,51.39
2022-08-02T07:52:50.147Z,51.16
2022-08-02T07:55:24.331Z,51.01
2022-08-02T07:58:06.070Z,51.09
2022-08-02T08:00:45.030Z,50.87
2022-08-02T08:03:12.760Z,50.25
2022-08-02T08:05:39.979Z,50.40
2022-08-02T08:08:06.994Z,50.88
2022-08-02T08:10:34.566Z,50.70
2022-08-02T08:13:01.308Z,49.94
2022-08-02T08:15:28.194Z,49.45
2022-08-02T08:17:55.233Z,49.78
2022-08-02T08:20:22.115Z,49.41
2022-08-02T08:22:50.404Z,48.94
2022-08-02T08:25:17.345Z,48.84
2022-08-02T08:27:52.401Z,49.01
2022-08-02T08:30:21.714Z,48.76
2022-08-02T08:32:49.388Z,48.86
2022-08-02T08:35:16.782Z,47.95
2022-08-02T08:37:43.680Z,47.48
2022-08-02T08:40:11.741Z,47.70
2022-08-02T08:42:39.931Z,47.71
2022-08-02T08:45:08.219Z,47.42
2022-08-02T08:47:41.191Z,47.67
2022-08-02T08:50:18.959Z,47.61
2022-08-02T08:52:53.773Z,47.24
2022-08-02T08:55:25.284Z,46.61
2022-08-02T08:57:54.473Z,45.96
2022-08-02T09:00:21.426Z,45.45
2022-08-02T09:02:48.346Z,45.48
2022-08-02T09:05:17.784Z,44.90
2022-08-02T09:07:53.070Z,44.97
2022-08-02T09:10:36.362Z,44.52
2022-08-02T09:13:38.283Z,44.70
2022-08-02T09:16:14.144Z,44.69
2022-08-02T09:18:46.972Z,45.20
2022-08-02T09:21:17.189Z,44.25
2022-08-02T09:23:47.898Z,44.06
2022-08-02T09:26:23.894Z,43.60
2022-08-02T09:33:05.442Z,43.26
2022-08-02T09:36:07.389Z,42.33
2022-08-02T09:38:25.845Z,42.23
2022-08-02T09:40:54.664Z,42.76
2022-08-02T09:43:21.814Z,42.88
2022-08-02T09:45:48.664Z,42.59
2022-08-02T09:48:15.403Z,42.53
2022-08-02T09:50:43.205Z,42.66
2022-08-02T09:53:14.282Z,42.18
2022-08-02T09:55:42.746Z,41.73
2022-08-02T09:58:19.934Z,41.37
2022-08-02T10:00:55.099Z,41.29
2022-08-02T10:03:22.949Z,41.46
2022-08-02T10:05:57.288Z,41.73
2022-08-02T10:08:32.932Z,41.90
2022-08-02T10:11:01.777Z,41.75
2022-08-02T10:13:35.699Z,41.79
2022-08-02T10:16:04.382Z,42.06
2022-08-02T10:18:40.356Z,41.60
2022-08-02T10:21:14.005Z,40.63
2022-08-02T10:23:44.406Z,40.91
2022-08-02T10:26:15.617Z,41.51
2022-08-02T10:28:45.238Z,41.92
2022-08-02T10:31:15.312Z,41.92
2022-08-02T10:33:48.572Z,41.31
2022-08-02T10:36:18.318Z,41.03
2022-08-02T10:38:46.534Z,40.27
2022-08-02T10:41:13.403Z,40.34
2022-08-02T10:43:45.198Z,40.35
2022-08-02T10:46:25.554Z,39.63
2022-08-02T10:52:02.532Z,38.79
2022-08-02T10:54:38.322Z,38.53
2022-08-02T10:57:20.816Z,38.20
2022-08-02T10:59:49.910Z,37.96
2022-08-02T11:02:33.760Z,38.27
2022-08-02T11:05:02.969Z,37.94
2022-08-02T11:07:47.285Z,38.46
2022-08-02T11:10:36.049Z,38.57
2022-08-02T11:13:02.775Z,39.04
2022-08-02T11:15:30.693Z,38.60
2022-08-02T11:18:01.581Z,39.02
2022-08-02T11:20:28.363Z,39.07
2022-08-02T11:22:56.640Z,38.17
2022-08-02T11:25:23.453Z,37.38
2022-08-02T11:27:59.182Z,36.97
2022-08-02T11:30:27.625Z,37.33
2022-08-02T11:32:58.865Z,37.60
2022-08-02T11:35:41.710Z,37.39
2022-08-02T11:38:17.899Z,37.79
2022-08-02T11:40:46.125Z,37.38
2022-08-02T11:43:21.375Z,37.62
2022-08-02T11:45:51.047Z,37.84
2022-08-02T11:48:39.633Z,38.32
2022-08-02T11:51:11.315Z,38.59
2022-08-02T11:53:59.094Z,39.18
2022-08-02T11:56:32.860Z,39.50
2022-08-02T11:59:08.421Z,39.90
2022-08-02T12:01:45.521Z,40.17
2022-08-02T12:04:22.790Z,39.76
2022-08-02T12:06:56.158Z,39.22
2022-08-02T12:09:25.474Z,39.05
2022-08-02T12:11:52.434Z,38.96
2022-08-02T12:14:19.757Z,38.76
2022-08-02T12:17:06.679Z,38.36
2022-08-02T12:19:35.004Z,37.43
2022-08-02T12:22:11.456Z,38.17
2022-08-02T12:24:43.555Z,37.79
2022-08-02T12:27:10.957Z,37.26
2022-08-02T12:29:58.724Z,36.75
2022-08-02T12:32:26.791Z,36.77
2022-08-02T12:35:26.836Z,36.39
2022-08-02T12:37:54.384Z,35.95
2022-08-02T12:40:33.022Z,35.98
2022-08-02T12:43:02.673Z,36.45
2022-08-02T12:45:48.399Z,36.24
2022-08-02T12:48:17.755Z,36.17
2022-08-02T12:50:45.054Z,36.03
2022-08-02T12:53:15.279Z,36.50
2022-08-02T12:56:01.651Z,36.57
2022-08-02T12:58:32.045Z,36.12
2022-08-02T13:01:01.320Z,36.22
2022-08-02T13:04:11.803Z,35.98
2022-08-02T13:06:39.734Z,36.07
2022-08-02T13:09:13.491Z,36.29
2022-08-02T13:11:42.900Z,36.67
2022-08-02T13:14:11.798Z,36.99
2022-08-02T13:16:38.675Z,37.09
2022-08-02T13:19:05.492Z,37.06
2022-08-02T13:21:40.770Z,36.92
2022-08-02T13:24:39.215Z,36.89
2022-08-02T13:27:08.630Z,36.80
2022-08-02T13:29:39.163Z,36.88
2022-08-02T13:32:06.158Z,36.85
2022-08-02T13:34:32.912Z,37.23
2022-08-02T13:36:59.793Z,37.03
2022-08-02T13:39:26.734Z,36.56
2022-08-02T13:41:53.496Z,36.20
2022-08-02T13:44:20.263Z,35.97
2022-08-02T13:46:47.509Z,36.18
2022-08-02T13:49:18.977Z,36.52
2022-08-02T13:51:49.574Z,36.24
2022-08-02T13:54:17.513Z,36.17
2022-08-02T13:56:44.776Z,36.25
2022-08-02T13:59:54.028Z,36.78
2022-08-02T14:01:59.626Z,36.95
2022-08-02T14:04:27.915Z,37.17
2022-08-02T14:06:55.024Z,37.52
2022-08-02T14:09:26.293Z,37.94
2022-08-02T14:11:53.165Z,38.08
2022-08-02T14:14:20.062Z,37.87
2022-08-02T14:16:47.175Z,37.89
2022-08-02T14:19:16.305Z,38.00
2022-08-02T14:21:46.397Z,38.18
2022-08-02T14:24:19.259Z,38.22
2022-08-02T14:26:47.262Z,38.75
2022-08-02T14:29:15.550Z,39.28
2022-08-02T14:31:44.938Z,39.17
2022-08-02T14:34:15.102Z,39.16
2022-08-02T14:36:42.287Z,38.59
2022-08-02T14:39:09.493Z,38.13
2022-08-02T14:41:58.207Z,38.12
2022-08-02T14:44:24.361Z,37.57
2022-08-02T14:46:51.519Z,37.65
2022-08-02T14:49:25.545Z,37.42
2022-08-02T14:51:54.785Z,37.63
2022-08-02T14:54:27.755Z,38.03
2022-08-02T14:56:56.575Z,38.13
2022-08-02T14:59:23.364Z,37.86
2022-08-02T15:01:50.166Z,37.94
2022-08-02T15:04:17.107Z,38.37
2022-08-02T15:06:44.162Z,38.78
2022-08-02T15:09:11.013Z,38.73
2022-08-02T15:11:47.816Z,38.78
2022-08-02T15:14:22.359Z,38.68
2022-08-02T15:16:58.533Z,38.81
2022-08-02T15:19:36.103Z,38.78
2022-08-02T15:22:16.725Z,38.88
2022-08-02T15:24:45.916Z,39.27
2022-08-02T15:27:16.166Z,39.37
2022-08-02T15:29:45.070Z,39.20
2022-08-02T15:32:13.381Z,39.40
2022-08-02T15:34:40.549Z,39.10
2022-08-02T15:37:07.492Z,38.66
2022-08-02T15:39:34.483Z,38.49
2022-08-02T15:42:01.314Z,38.39
2022-08-02T15:44:28.535Z,38.03
2022-08-02T15:46:55.960Z,38.04
2022-08-02T15:49:24.200Z,38.01
2022-08-02T15:51:52.818Z,37.79
2022-08-02T15:54:19.597Z,37.73
2022-08-02T15:56:46.849Z,37.69
2022-08-02T15:59:14.003Z,37.55
2022-08-02T16:01:44.919Z,37.83
2022-08-02T16:04:13.883Z,38.07
2022-08-02T16:06:40.838Z,38.13
2022-08-02T16:09:07.725Z,38.36
2022-08-02T16:11:34.736Z,38.78
2022-08-02T16:14:01.766Z,38.75
2022-08-02T16:16:31.044Z,38.92
2022-08-02T16:18:58.851Z,39.16
2022-08-02T16:21:25.900Z,39.11
2022-08-02T16:24:02.122Z,39.28
2022-08-02T16:26:32.155Z,39.26
2022-08-02T16:29:00.144Z,39.35
2022-08-02T16:31:27.299Z,39.25
2022-08-02T16:33:55.921Z,39.25
2022-08-02T16:36:24.478Z,39.79
2022-08-02T16:38:51.499Z,39.61
2022-08-02T16:41:18.776Z,39.88
2022-08-02T16:43:46.089Z,39.96
2022-08-02T16:46:13.160Z,39.97
2022-08-02T16:48:40.209Z,39.96
2022-08-02T16:51:13.685Z,40.09
2022-08-02T16:53:59.105Z,40.37
2022-08-02T16:56:28.654Z,40.70
2022-08-02T16:58:59.488Z,40.93
2022-08-02T17:01:28.487Z,41.27
2022-08-02T17:04:15.866Z,41.60
2022-08-02T17:06:47.871Z,41.60
2022-08-02T17:10:04.555Z,41.64
2022-08-02T17:12:15.770Z,41.87
2022-08-02T17:14:55.108Z,42.18
2022-08-02T17:17:34.196Z,42.13
2022-08-02T17:20:02.976Z,42.53
2022-08-02T17:22:29.699Z,42.51
2022-08-02T17:24:59.238Z,42.83
2022-08-02T17:27:26.989Z,42.87
2022-08-02T17:29:53.872Z,42.93
2022-08-02T17:32:20.712Z,43.18
2022-08-02T17:34:56.498Z,43.28
2022-08-02T17:37:28.392Z,43.52
2022-08-02T17:39:57.489Z,43.78
2022-08-02T17:42:25.109Z,44.02
2022-08-02T17:44:54.137Z,44.22
2022-08-02T17:47:21.985Z,44.61
2022-08-02T17:49:50.403Z,45.10
2022-08-02T17:52:52.003Z,45.29
2022-08-02T17:55:14.155Z,45.48
2022-08-02T17:57:59.948Z,46.02
2022-08-02T18:00:34.596Z,46.32
2022-08-02T18:03:05.789Z,46.65
2022-08-02T18:05:41.604Z,46.85
2022-08-02T18:08:22.915Z,47.27
2022-08-02T18:10:54.539Z,47.79
2022-08-02T18:13:22.229Z,47.92
2022-08-02T18:15:57.235Z,48.07
2022-08-02T18:18:26.624Z,48.27
2022-08-02T18:20:57.702Z,48.43
2022-08-02T18:23:24.585Z,48.55
2022-08-02T18:25:55.129Z,48.68
2022-08-02T18:28:26.646Z,49.18
2022-08-02T18:30:54.495Z,49.41
2022-08-02T18:33:58.840Z,49.71
2022-08-02T18:36:10.278Z,49.91
2022-08-02T18:38:51.479Z,50.05
2022-08-02T18:41:19.451Z,50.01
2022-08-02T18:43:48.909Z,50.28
2022-08-02T18:46:20.061Z,50.52
2022-08-02T18:48:48.137Z,50.64
2022-08-02T18:51:19.055Z,50.92
2022-08-02T18:53:51.377Z,51.24
2022-08-02T18:56:24.794Z,51.61
2022-08-02T18:58:56.062Z,51.97
2022-08-02T19:01:32.257Z,52.01
2022-08-02T19:04:03.178Z,52.43
2022-08-02T19:06:30.953Z,52.34
2022-08-02T19:09:11.277Z,52.47
2022-08-02T19:11:47.230Z,52.82
2022-08-02T19:14:27.165Z,53.12
2022-08-02T19:16:59.787Z,53.59
2022-08-02T19:19:28.874Z,53.55
2022-08-02T19:22:18.341Z,53.74
2022-08-02T19:24:46.241Z,54.02
2022-08-02T19:27:14.896Z,54.13
2022-08-02T19:29:48.658Z,54.35
2022-08-02T19:32:40.042Z,54.39
2022-08-02T19:35:19.782Z,54.78
2022-08-02T19:37:59.267Z,54.99
2022-08-02T19:40:29.587Z,55.09
2022-08-02T19:44:23.730Z,55.20
2022-08-02T19:45:51.145Z,55.43
2022-08-02T19:51:07.993Z,56.04
2022-08-02T19:53:47.910Z,55.86
2022-08-02T19:56:20.228Z,56.33
2022-08-02T19:58:51.533Z,56.32
2022-08-02T20:01:23.506Z,56.60
2022-08-02T20:03:55.374Z,56.59
2022-08-02T20:06:29.293Z,56.66
2022-08-02T20:08:59.184Z,57.12
2022-08-02T20:11:34.445Z,57.26
2022-08-02T20:14:04.313Z,57.45
2022-08-02T20:16:33.007Z,57.52
2022-08-02T20:19:01.014Z,57.63
2022-08-02T20:21:36.245Z,57.60
2022-08-02T20:24:10.150Z,57.61
2022-08-02T20:26:47.207Z,57.71
2022-08-02T20:29:42.456Z,57.70
2022-08-02T20:32:03.810Z,57.47
2022-08-02T20:34:33.681Z,57.52
2022-08-02T20:38:00.011Z,57.44
2022-08-02T20:39:52.505Z,57.67
2022-08-02T20:42:23.600Z,57.90
2022-08-02T20:44:55.500Z,58.59
2022-08-02T20:47:28.448Z,58.70
2022-08-02T20:50:31.461Z,58.27
2022-08-02T20:53:04.300Z,58.68
2022-08-02T20:55:32.033Z,58.84
2022-08-02T20:58:04.717Z,59.00
2022-08-02T21:00:32.907Z,59.28
2022-08-02T21:03:04.393Z,59.30
2022-08-02T21:05:55.061Z,59.68
2022-08-02T21:08:21.511Z,59.82
2022-08-02T21:10:50.847Z,60.12
2022-08-02T21:13:22.567Z,60.23
2022-08-02T21:15:55.089Z,60.38
2022-08-02T21:18:25.822Z,60.56
2022-08-02T21:21:01.493Z,60.77
2022-08-02T21:23:29.332Z,60.83
2022-08-02T21:25:58.144Z,60.91
2022-08-02T21:28:43.882Z,61.26
2022-08-02T21:31:15.882Z,61.32
2022-08-02T21:33:56.987Z,61.37
2022-08-02T21:36:32.574Z,61.47
2022-08-02T21:39:09.137Z,61.61
2022-08-02T21:41:46.709Z,61.79
2022-08-02T21:44:16.670Z,61.85
2022-08-02T21:46:50.254Z,61.99
2022-08-02T21:49:18.784Z,62.00
2022-08-02T21:51:49.225Z,61.64
2022-08-02T21:54:21.246Z,61.24
2022-08-02T21:56:52.184Z,61.30
2022-08-02T21:59:25.320Z,61.16
2022-08-02T22:01:57.396Z,61.29
2022-08-02T22:04:26.160Z,61.52
2022-08-02T22:06:54.860Z,61.89
2022-08-02T22:09:44.685Z,61.81
2022-08-02T22:12:16.563Z,61.87
2022-08-02T22:14:53.925Z,61.56
2022-08-02T22:17:52.318Z,61.97
2022-08-02T22:20:13.695Z,62.39
2022-08-02T22:22:40.884Z,62.42
2022-08-02T22:25:21.745Z,62.27
2022-08-02T22:28:11.842Z,62.68
2022-08-02T22:30:43.088Z,63.03
2022-08-02T22:33:33.349Z,63.23
2022-08-02T22:36:02.090Z,63.35
2022-08-02T22:38:29.419Z,63.52
2022-08-02T22:40:56.683Z,63.45
2022-08-02T22:43:23.679Z,63.56
2022-08-02T22:45:51.042Z,63.67
2022-08-02T22:48:19.364Z,63.81
2022-08-02T22:50:47.459Z,63.91
2022-08-02T22:53:18.273Z,64.10
2022-08-02T22:55:51.794Z,64.21
2022-08-02T22:58:19.563Z,64.41
2022-08-02T22:58:53.231Z,55.78
2022-08-02T23:00:49.094Z,64.54
2022-08-02T23:03:17.079Z,64.57
2022-08-02T23:05:43.926Z,64.74
2022-08-02T23:08:10.799Z,64.82
2022-08-02T23:10:37.639Z,64.78
2022-08-02T23:13:04.663Z,64.71
2022-08-02T23:15:50.254Z,64.83
2022-08-02T23:18:35.753Z,64.97
2022-08-02T23:21:02.604Z,64.89
2022-08-02T23:23:29.409Z,64.87
2022-08-02T23:25:56.649Z,64.92
2022-08-02T23:28:23.576Z,65.20
2022-08-02T23:30:50.571Z,65.31
2022-08-02T23:33:17.470Z,65.41
2022-08-02T23:35:44.496Z,65.50
2022-08-02T23:38:11.501Z,65.57
2022-08-02T23:40:39.295Z,65.53
2022-08-02T23:43:13.967Z,65.79
2022-08-02T23:45:48.617Z,65.75
2022-08-02T23:48:15.610Z,65.85
2022-08-02T23:50:42.513Z,65.93
2022-08-02T23:53:09.350Z,65.96
2022-08-02T23:55:36.297Z,66.07
2022-08-02T23:58:03.145Z,66.26
